Time;durP1;ratioP1;P1;durP2;ratioP2;P2;SDS_P1;SDS_P2;PMS_P1;PMS_P2;Temp;Humidity;BMP_temperature;BMP_pressure;BME280_temperature;BME280_humidity;BME280_pressure;Samples;Min_cycle;Max_cycle;Signal;HPM_P1;HPM_P2
2024/01/14 05:22:32;;;;;;;23.48;9.38;;;;;;;-2.80;100.00;100322.53;5089677;28;20718;-33
2024/01/14 05:24:57;;;;;;;25.73;10.60;;;;;;;-2.66;100.00;100327.78;5089918;28;20058;-35
2024/01/14 05:27:23;;;;;;;26.70;10.75;;;;;;;-2.70;100.00;100320.22;5089254;28;20040;-34
2024/01/14 05:29:48;;;;;;;27.40;10.55;;;;;;;-2.87;100.00;100324.63;5089477;28;20119;-35
2024/01/14 05:32:16;;;;;;;24.08;11.63;;;;;;;-2.84;100.00;100323.59;5089563;28;20052;-33
2024/01/14 05:34:42;;;;;;;27.90;11.10;;;;;;;-2.83;100.00;100325.28;5089135;28;20446;-34
2024/01/14 05:37:08;;;;;;;24.83;12.05;;;;;;;-2.79;100.00;100322.44;5088870;28;20310;-35
2024/01/14 05:39:34;;;;;;;25.45;12.15;;;;;;;-2.74;100.00;100317.78;5089154;28;20444;-35
2024/01/14 05:42:00;;;;;;;18.92;9.00;;;;;;;-2.82;100.00;100317.38;5088978;28;20029;-34
2024/01/14 05:44:25;;;;;;;26.10;12.07;;;;;;;-2.80;100.00;100302.50;5089053;28;20047;-35
2024/01/14 05:46:51;;;;;;;22.60;11.40;;;;;;;-2.83;100.00;100305.25;5088617;28;20421;-34
2024/01/14 05:49:17;;;;;;;20.70;10.05;;;;;;;-3.07;100.00;100299.66;5088811;28;20480;-35
2024/01/14 05:51:42;;;;;;;20.65;9.70;;;;;;;-2.85;100.00;100311.50;5087686;28;20042;-33
2024/01/14 05:54:08;;;;;;;26.45;11.02;;;;;;;-2.93;100.00;100303.28;5088855;28;20036;-34
2024/01/14 05:56:33;;;;;;;27.00;11.10;;;;;;;-3.10;100.00;100299.00;5088665;28;20079;-34
2024/01/14 05:59:00;;;;;;;27.20;12.07;;;;;;;-2.86;100.00;100299.41;5088816;28;20032;-34
2024/01/14 06:01:27;;;;;;;24.70;12.50;;;;;;;-2.85;100.00;100296.69;5088886;28;20037;-35
2024/01/14 06:03:52;;;;;;;30.63;11.80;;;;;;;-2.90;100.00;100292.66;5088700;28;20094;-35
2024/01/14 06:06:18;;;;;;;26.50;12.55;;;;;;;-2.92;100.00;100292.75;5088356;28;20476;-35
2024/01/14 06:08:44;;;;;;;30.42;11.80;;;;;;;-2.84;100.00;100292.31;5088449;28;20111;-35
2024/01/14 06:11:09;;;;;;;27.60;11.40;;;;;;;-2.90;100.00;100287.44;5088562;28;20540;-35
2024/01/14 06:13:35;;;;;;;21.52;10.50;;;;;;;-2.98;100.00;100290.50;5088479;28;20032;-34
2024/01/14 06:16:01;;;;;;;29.35;12.35;;;;;;;-3.16;100.00;100284.53;5088199;28;20089;-35
2024/01/14 06:18:28;;;;;;;22.25;10.93;;;;;;;-3.06;100.00;100280.50;5088143;28;20657;-35
2024/01/14 06:20:55;;;;;;;23.30;10.80;;;;;;;-3.20;100.00;100280.41;5087981;28;20400;-35
2024/01/14 06:23:21;;;;;;;17.60;9.95;;;;;;;-3.10;100.00;100273.78;5088226;28;20135;-33
2024/01/14 06:25:47;;;;;;;20.35;9.80;;;;;;;-3.20;100.00;100269.16;5088140;28;20116;-35
2024/01/14 06:28:12;;;;;;;24.52;11.00;;;;;;;-3.00;100.00;100263.66;5087876;28;20040;-35
2024/01/14 06:30:37;;;;;;;23.67;10.18;;;;;;;-3.27;100.00;100264.28;5088024;28;20036;-35
2024/01/14 06:33:03;;;;;;;25.52;11.60;;;;;;;-3.10;100.00;100260.75;5079186;28;20055;-33
2024/01/14 06:35:28;;;;;;;23.08;10.43;;;;;;;-3.11;100.00;100266.88;5074622;28;20044;-35
2024/01/14 06:37:54;;;;;;;25.15;11.75;;;;;;;-3.22;100.00;100263.19;5076072;28;20033;-35
2024/01/14 06:40:19;;;;;;;27.58;11.35;;;;;;;-3.20;100.00;100254.34;5074250;28;20116;-34
2024/01/14 06:42:45;;;;;;;24.90;11.00;;;;;;;-3.04;100.00;100259.56;5074314;28;20049;-35
2024/01/14 06:45:12;;;;;;;21.13;8.93;;;;;;;-3.03;100.00;100253.41;5074272;28;20067;-35
2024/01/14 06:47:37;;;;;;;24.90;10.63;;;;;;;-2.81;100.00;100258.22;5074024;28;20044;-34
2024/01/14 06:50:03;;;;;;;24.70;10.85;;;;;;;-2.81;100.00;100251.25;5074214;28;20047;-35
2024/01/14 06:52:29;;;;;;;23.77;10.63;;;;;;;-2.83;100.00;100253.13;5074378;28;20037;-35
2024/01/14 06:54:54;;;;;;;21.40;11.43;;;;;;;-2.98;100.00;100246.19;5056115;28;20044;-35
2024/01/14 06:57:19;;;;;;;29.80;11.95;;;;;;;-2.89;100.00;100240.44;5073917;28;20036;-34
2024/01/14 06:59:45;;;;;;;28.35;11.45;;;;;;;-3.07;100.00;100241.47;5073995;28;20036;-36
2024/01/14 07:02:12;;;;;;;19.38;9.38;;;;;;;-3.12;100.00;100240.91;5074007;28;20058;-35
2024/01/14 07:04:37;;;;;;;30.43;11.77;;;;;;;-3.01;100.00;100231.53;5074159;28;20052;-35
2024/01/14 07:07:03;;;;;;;25.27;9.98;;;;;;;-3.14;100.00;100221.91;5073619;28;20036;-35
2024/01/14 07:09:28;;;;;;;24.48;11.32;;;;;;;-3.07;100.00;100213.63;5072930;28;20048;-35
2024/01/14 07:11:54;;;;;;;24.58;10.93;;;;;;;-3.10;100.00;100213.81;5072747;28;20054;-35
2024/01/14 07:14:19;;;;;;;27.15;11.07;;;;;;;-3.24;100.00;100211.16;5073484;28;20476;-35
2024/01/14 07:16:45;;;;;;;25.45;10.60;;;;;;;-3.25;100.00;100206.06;5074161;28;20036;-35
2024/01/14 07:19:10;;;;;;;23.65;11.05;;;;;;;-2.93;100.00;100201.63;5075441;28;20040;-34
2024/01/14 07:21:35;;;;;;;25.75;11.82;;;;;;;-3.13;100.00;100203.59;5077429;28;20123;-36
2024/01/14 07:24:01;;;;;;;29.20;11.25;;;;;;;-3.06;100.00;100204.91;5076674;28;20396;-35
2024/01/14 07:26:26;;;;;;;19.20;9.98;;;;;;;-3.09;100.00;100197.25;5078423;28;20052;-35
2024/01/14 07:28:52;;;;;;;17.05;8.50;;;;;;;-3.22;100.00;100196.28;5077912;28;20051;-35
2024/01/14 07:31:21;;;;;;;24.48;11.13;;;;;;;-2.99;100.00;100191.53;5078237;28;20067;-35
2024/01/14 07:33:50;;;;;;;18.83;8.48;;;;;;;-3.19;100.00;100190.06;5076296;28;20039;-35
2024/01/14 07:36:15;;;;;;;22.90;11.35;;;;;;;-2.96;100.00;100196.56;5072648;28;20115;-35
2024/01/14 07:38:41;;;;;;;25.30;10.93;;;;;;;-3.21;100.00;100187.53;5069090;28;20079;-35
2024/01/14 07:41:06;;;;;;;23.30;9.95;;;;;;;-3.22;100.00;100187.63;5065167;28;20115;-34
2024/01/14 07:43:32;;;;;;;24.65;12.95;;;;;;;-2.98;100.00;100191.44;5066471;28;20500;-38
2024/01/14 07:45:57;;;;;;;19.40;10.50;;;;;;;-2.96;100.00;100199.16;5063954;28;20120;-34
2024/01/14 07:48:26;;;;;;;17.45;9.45;;;;;;;-2.87;100.00;100199.50;5067210;28;20123;-36
2024/01/14 07:50:54;;;;;;;22.35;9.68;;;;;;;-2.96;100.00;100189.56;5062706;28;20029;-35
2024/01/14 07:53:21;;;;;;;27.35;11.45;;;;;;;-2.72;100.00;100191.69;5055157;28;20037;-35
2024/01/14 07:55:46;;;;;;;19.65;8.60;;;;;;;-2.94;100.00;100192.94;5056338;28;20503;-33
2024/01/14 07:58:12;;;;;;;19.23;9.23;;;;;;;-2.71;100.00;100189.00;5055448;28;20036;-35
2024/01/14 08:00:38;;;;;;;25.05;9.55;;;;;;;-2.60;100.00;100186.59;5060573;28;20044;-34
2024/01/14 08:03:04;;;;;;;21.80;10.52;;;;;;;-2.79;100.00;100184.22;5075788;28;20044;-35
2024/01/14 08:05:29;;;;;;;22.17;10.73;;;;;;;-2.78;100.00;100177.25;5075348;28;20127;-35
2024/01/14 08:07:55;;;;;;;14.38;7.28;;;;;;;-2.72;100.00;100171.66;5081422;28;20041;-35
2024/01/14 08:10:21;;;;;;;23.83;9.75;;;;;;;-2.61;100.00;100160.59;5076560;28;20044;-34
2024/01/14 08:12:47;;;;;;;9.55;4.68;;;;;;;9.54;100.00;100133.75;5058837;28;20127;-30
2024/01/14 08:15:14;;;;;;;17.83;8.30;;;;;;;11.69;72.23;100135.63;5085478;28;20036;-32
2024/01/14 08:17:40;;;;;;;12.00;5.32;;;;;;;11.53;63.35;100133.09;5083948;28;20098;-32
2024/01/14 08:20:06;;;;;;;19.73;8.30;;;;;;;10.26;61.49;100143.38;5081401;28;20028;-31
2024/01/14 08:22:32;;;;;;;19.55;9.20;;;;;;;6.63;54.56;100134.88;5078684;28;20044;-33
2024/01/14 08:24:57;;;;;;;22.17;10.43;;;;;;;-0.70;77.58;100148.41;5076394;28;20040;-36
2024/01/14 08:27:23;;;;;;;21.33;10.88;;;;;;;-1.60;89.33;100154.34;5076983;28;20029;-35
2024/01/14 08:29:48;;;;;;;25.92;11.57;;;;;;;-1.69;91.80;100158.41;5081510;28;20081;-36
2024/01/14 08:32:14;;;;;;;20.63;8.55;;;;;;;-2.04;94.81;100147.53;5085406;28;20043;-36
2024/01/14 08:34:39;;;;;;;25.42;11.40;;;;;;;-2.02;96.93;100156.09;5078424;28;20135;-34
2024/01/14 08:37:04;;;;;;;21.83;10.30;;;;;;;-2.21;96.04;100156.44;5076966;28;20055;-36
2024/01/14 08:39:30;;;;;;;20.35;10.00;;;;;;;-2.43;98.29;100158.66;5072777;28;20044;-35
2024/01/14 08:41:56;;;;;;;24.02;11.93;;;;;;;-1.90;96.65;100152.72;5072563;28;20119;-35
2024/01/14 08:44:21;;;;;;;23.25;11.50;;;;;;;-1.84;96.35;100148.91;5072625;28;20500;-34
2024/01/14 08:46:48;;;;;;;28.52;11.38;;;;;;;-1.87;96.81;100149.09;5072262;28;20045;-36
2024/01/14 08:49:16;;;;;;;24.45;10.23;;;;;;;-2.27;98.66;100141.97;5072303;28;20051;-36
2024/01/14 08:51:41;;;;;;;22.55;10.65;;;;;;;-2.12;97.93;100139.34;5072290;28;20166;-34
2024/01/14 08:54:07;;;;;;;21.15;10.13;;;;;;;-2.23;98.15;100148.66;5072120;28;20058;-36
2024/01/14 08:56:32;;;;;;;26.15;11.48;;;;;;;-1.93;98.58;100140.72;5078600;28;20489;-36
2024/01/14 08:58:58;;;;;;;21.10;11.63;;;;;;;-1.79;96.77;100141.63;5072255;28;20491;-35
2024/01/14 09:01:24;;;;;;;12.43;5.43;;;;;;;-2.35;99.01;100143.34;5072158;28;20032;-34
2024/01/14 09:03:50;;;;;;;22.92;11.45;;;;;;;-1.87;97.93;100139.50;5072448;28;20131;-34
2024/01/14 09:06:16;;;;;;;21.95;10.85;;;;;;;-1.84;97.00;100135.84;5072045;28;20119;-36
2024/01/14 09:08:42;;;;;;;25.60;11.00;;;;;;;-1.56;97.32;100134.94;5072214;28;20036;-36
2024/01/14 09:11:07;;;;;;;28.00;10.15;;;;;;;-1.87;97.66;100129.06;5072217;28;20039;-36
2024/01/14 09:13:33;;;;;;;18.63;9.63;;;;;;;-2.09;99.83;100129.53;5072190;28;20032;-36
2024/01/14 09:15:59;;;;;;;18.95;8.60;;;;;;;-2.16;99.61;100128.25;5071925;28;20043;-35
2024/01/14 09:18:25;;;;;;;23.23;9.95;;;;;;;-2.05;100.00;100130.19;5071569;28;20041;-35
2024/01/14 09:20:50;;;;;;;14.45;7.22;;;;;;;-2.47;100.00;100132.75;5072016;28;20097;-36
2024/01/14 09:23:16;;;;;;;21.13;9.52;;;;;;;-2.42;100.00;100123.78;5072009;28;20492;-35
2024/01/14 09:25:41;;;;;;;23.73;11.25;;;;;;;-1.97;100.00;100131.38;5071088;28;20040;-36
2024/01/14 09:28:07;;;;;;;15.00;7.88;;;;;;;-2.43;100.00;100125.56;5061782;28;20071;-35
2024/01/14 09:30:32;;;;;;;16.70;7.85;;;;;;;-2.33;100.00;100128.47;5060514;28;20045;-40
2024/01/14 09:32:58;;;;;;;15.77;8.57;;;;;;;-2.16;100.00;100124.81;5061196;28;20041;-36
2024/01/14 09:35:23;;;;;;;14.02;7.20;;;;;;;-2.22;100.00;100129.50;5062601;28;20424;-36
2024/01/14 09:37:50;;;;;;;23.13;9.10;;;;;;;-2.21;100.00;100120.72;5060045;28;20048;-37
2024/01/14 09:40:18;;;;;;;13.60;6.45;;;;;;;-2.37;100.00;100113.94;5062068;28;20530;-36
2024/01/14 09:42:47;;;;;;;19.95;9.70;;;;;;;-2.08;98.20;100122.56;5059978;28;20072;-34
2024/01/14 09:45:14;;;;;;;24.40;10.40;;;;;;;-1.93;97.21;100121.59;5061487;28;20044;-35
2024/01/14 09:47:41;;;;;;;21.30;10.45;;;;;;;-1.90;96.40;100131.84;5065722;28;20103;-35
2024/01/14 09:50:07;;;;;;;26.35;10.63;;;;;;;-1.82;96.32;100121.78;5062175;28;20102;-34
2024/01/14 09:52:34;;;;;;;18.50;9.85;;;;;;;-1.49;94.00;100115.31;5052260;28;20117;-35
2024/01/14 09:55:00;;;;;;;22.23;11.02;;;;;;;-1.39;93.82;100114.59;5061561;28;20041;-35
2024/01/14 09:57:27;;;;;;;23.92;11.15;;;;;;;-1.47;94.04;100106.44;5059555;28;20040;-35
2024/01/14 09:59:55;;;;;;;29.55;12.45;;;;;;;-1.20;93.04;100114.22;5061584;28;20025;-34
2024/01/14 10:02:21;;;;;;;22.58;11.02;;;;;;;-1.56;93.11;100107.03;5060289;28;20473;-34
2024/01/14 10:04:48;;;;;;;21.25;11.18;;;;;;;-1.75;94.29;100120.44;5061579;28;20033;-34
2024/01/14 10:07:14;;;;;;;24.33;10.55;;;;;;;-1.51;93.19;100107.56;5059914;28;20039;-35
2024/01/14 10:09:40;;;;;;;23.30;10.80;;;;;;;-1.70;95.32;100113.13;5065244;28;20108;-36
2024/01/14 10:12:09;;;;;;;22.60;11.07;;;;;;;-1.50;95.15;100100.56;5065004;28;20115;-36
2024/01/14 10:14:35;;;;;;;21.10;10.10;;;;;;;-1.47;94.13;100103.81;5063286;28;20043;-36
2024/01/14 10:17:01;;;;;;;24.00;11.15;;;;;;;-1.30;93.43;100101.88;5064455;28;20089;-36
2024/01/14 10:19:27;;;;;;;22.15;10.48;;;;;;;-1.51;92.99;100099.72;5064635;28;20048;-36
2024/01/14 10:21:54;;;;;;;29.25;9.40;;;;;;;-2.07;96.69;100103.38;5062663;28;20040;-36
2024/01/14 10:24:23;;;;;;;21.30;9.32;;;;;;;-2.20;97.51;100098.91;5064980;28;20033;-34
2024/01/14 10:26:53;;;;;;;24.30;11.48;;;;;;;-2.25;98.37;100092.28;5063489;28;20071;-36
2024/01/14 10:29:19;;;;;;;22.10;11.10;;;;;;;-1.92;98.12;100095.38;5067393;28;20135;-35
2024/01/14 10:31:45;;;;;;;24.15;10.75;;;;;;;-2.16;97.98;100080.44;5064148;28;20025;-36
2024/01/14 10:34:10;;;;;;;21.90;9.68;;;;;;;-2.08;98.23;100083.44;5065169;28;20053;-36
2024/01/14 10:36:36;;;;;;;17.50;8.27;;;;;;;-2.29;98.73;100082.97;5062967;28;20566;-35
2024/01/14 10:39:04;;;;;;;18.83;9.10;;;;;;;-2.21;97.47;100071.13;5064279;28;20036;-36
2024/01/14 10:41:29;;;;;;;22.00;12.25;;;;;;;-1.88;96.93;100069.09;5064688;28;20113;-36
2024/01/14 10:43:55;;;;;;;24.38;10.88;;;;;;;-2.16;97.45;100065.59;5062865;28;20468;-36
2024/01/14 10:46:22;;;;;;;24.80;11.13;;;;;;;-2.17;99.04;100063.09;5064204;28;20040;-35
2024/01/14 10:49:01;;;;;;;21.85;10.77;;;;;;;-1.85;96.27;100053.22;5064303;28;20056;-34
2024/01/14 10:51:31;;;;;;;22.58;10.82;;;;;;;-1.58;95.68;100056.66;5064030;28;20446;-36
2024/01/14 10:54:10;;;;;;;25.33;11.13;;;;;;;-1.98;96.81;100056.63;5062608;28;20552;-36
2024/01/14 10:56:42;;;;;;;21.73;11.73;;;;;;;-1.87;96.49;100045.50;5062635;28;20396;-35
2024/01/14 10:59:12;;;;;;;27.15;12.45;;;;;;;-1.77;95.72;100048.34;5063300;28;20495;-35
2024/01/14 11:01:44;;;;;;;24.48;11.45;;;;;;;-1.70;96.92;100045.22;5063470;28;20028;-36
2024/01/14 11:04:10;;;;;;;29.17;12.50;;;;;;;-1.72;98.57;100038.44;5064731;28;20469;-34
2024/01/14 11:06:35;;;;;;;27.08;12.52;;;;;;;-1.56;97.78;100030.44;5062328;28;20041;-36
2024/01/14 11:09:01;;;;;;;21.73;10.10;;;;;;;-1.81;95.95;100026.81;5063866;28;20042;-36
2024/01/14 11:11:41;;;;;;;23.05;12.00;;;;;;;-1.50;95.86;100022.16;5063876;28;20040;-36
2024/01/14 11:14:21;;;;;;;26.33;12.05;;;;;;;-1.58;95.35;100011.41;5063784;28;20041;-35
2024/01/14 11:17:01;;;;;;;20.42;8.48;;;;;;;-1.62;95.17;100002.94;5063328;28;20037;-36
2024/01/14 11:19:33;;;;;;;26.27;11.68;;;;;;;-1.78;95.58;99997.88;5063685;28;20033;-35
2024/01/14 11:22:21;;;;;;;20.83;10.50;;;;;;;-1.55;94.45;100001.59;5062332;28;20037;-34
2024/01/14 11:24:47;;;;;;;22.83;11.23;;;;;;;-1.78;93.69;99986.59;5064719;28;20544;-35
2024/01/14 11:27:13;;;;;;;20.33;9.27;;;;;;;-1.96;96.16;99984.28;5068809;28;20178;-35
2024/01/14 11:29:40;;;;;;;22.85;10.27;;;;;;;-1.87;95.43;99971.56;5064475;28;20052;-34
2024/01/14 11:32:10;;;;;;;29.63;11.45;;;;;;;-1.86;95.20;99965.38;5063847;28;20033;-37
2024/01/14 11:34:48;;;;;;;23.05;11.63;;;;;;;-1.89;96.05;99960.34;5062668;28;20041;-35
2024/01/14 11:37:44;;;;;;;16.23;8.77;;;;;;;-2.01;96.94;99954.19;5062872;28;20041;-36
2024/01/14 11:40:16;;;;;;;19.60;10.23;;;;;;;-1.78;96.66;99950.03;5078968;28;20043;-36
2024/01/14 11:42:50;;;;;;;18.52;8.13;;;;;;;-2.30;99.56;99943.84;5070205;28;20039;-36
2024/01/14 11:45:22;;;;;;;20.65;10.43;;;;;;;-1.68;96.70;99940.66;5061728;28;20029;-36
2024/01/14 11:47:47;;;;;;;21.48;10.00;;;;;;;-1.83;97.38;99929.44;5060363;28;20032;-36
2024/01/14 11:50:14;;;;;;;23.63;10.40;;;;;;;-1.95;98.84;99925.91;5063643;28;20036;-35
2024/01/14 11:52:44;;;;;;;23.88;11.75;;;;;;;-1.64;96.29;99922.06;5061931;28;20095;-36
2024/01/14 11:55:16;;;;;;;24.40;12.02;;;;;;;-1.34;96.00;99917.47;5061891;28;20032;-37
2024/01/14 11:57:42;;;;;;;28.45;12.10;;;;;;;-1.65;95.59;99919.56;5061854;28;20033;-36
2024/01/14 12:00:08;;;;;;;27.13;10.90;;;;;;;-1.70;96.34;99911.19;5062167;28;20074;-36
2024/01/14 12:02:35;;;;;;;20.17;10.32;;;;;;;-2.01;97.08;99915.84;5063260;28;20040;-36
2024/01/14 12:05:18;;;;;;;19.58;8.85;;;;;;;-2.36;98.69;99899.06;5061838;28;20036;-36
2024/01/14 12:07:44;;;;;;;22.85;10.18;;;;;;;-2.03;98.53;99899.44;5061891;28;20104;-34
2024/01/14 12:10:16;;;;;;;19.58;9.65;;;;;;;-2.15;99.87;99894.19;5061527;28;20035;-36
2024/01/14 12:12:43;;;;;;;26.40;10.48;;;;;;;-2.02;98.06;99885.47;5061943;28;20021;-36
2024/01/14 12:15:09;;;;;;;15.30;8.00;;;;;;;-2.25;98.33;99878.31;5061645;28;20040;-36
2024/01/14 12:17:34;;;;;;;22.70;9.13;;;;;;;-2.18;100.00;99866.53;5062823;28;20561;-36
2024/01/14 12:20:01;;;;;;;22.77;11.07;;;;;;;-1.95;97.61;99860.63;5061365;28;20033;-36
2024/01/14 12:22:27;;;;;;;24.93;11.87;;;;;;;-1.76;96.73;99852.38;5058926;28;20033;-36
2024/01/14 12:24:53;;;;;;;26.52;11.25;;;;;;;-1.86;95.96;99842.66;5052313;28;20698;-36
2024/01/14 12:27:20;;;;;;;23.17;10.95;;;;;;;-1.81;96.75;99840.59;5052055;28;20071;-36
2024/01/14 12:29:45;;;;;;;23.73;10.50;;;;;;;-1.65;96.04;99834.19;5052156;28;20055;-36
2024/01/14 12:32:11;;;;;;;20.60;9.05;;;;;;;-1.85;95.82;99834.72;5052076;28;20037;-37
2024/01/14 12:34:45;;;;;;;20.83;10.48;;;;;;;-1.78;95.12;99832.53;5070814;28;20064;-36
2024/01/14 12:37:11;;;;;;;21.73;12.27;;;;;;;-1.59;95.31;99830.31;5072073;28;20036;-36
2024/01/14 12:39:37;;;;;;;17.77;9.70;;;;;;;-1.80;96.31;99821.34;5072216;28;20042;-36
2024/01/14 12:42:03;;;;;;;21.85;11.20;;;;;;;-1.66;95.13;99814.25;5071932;28;20032;-36
2024/01/14 12:44:33;;;;;;;27.08;11.32;;;;;;;-1.56;93.97;99795.34;5072133;28;20029;-36
2024/01/14 12:47:07;;;;;;;25.38;11.45;;;;;;;-1.58;93.46;99792.81;5071853;28;20496;-36
2024/01/14 12:49:33;;;;;;;23.17;11.27;;;;;;;-1.73;94.86;99797.31;5071792;28;20043;-36
2024/01/14 12:51:59;;;;;;;24.13;11.68;;;;;;;-1.32;93.42;99782.31;5071955;28;20024;-36
2024/01/14 12:54:24;;;;;;;20.33;10.88;;;;;;;-1.29;91.53;99788.16;5071810;28;20029;-36
2024/01/14 12:57:01;;;;;;;20.10;10.95;;;;;;;-1.24;93.00;99777.34;5068164;28;20053;-35
2024/01/14 12:59:26;;;;;;;24.42;12.05;;;;;;;-1.39;92.13;99787.13;5061131;28;20048;-36
2024/01/14 13:01:52;;;;;;;22.08;10.95;;;;;;;-1.19;91.27;99762.19;5058655;28;20080;-34
2024/01/14 13:04:17;;;;;;;18.10;10.70;;;;;;;-1.16;91.38;99757.59;5062587;28;20112;-36
2024/01/14 13:06:43;;;;;;;24.70;11.68;;;;;;;-1.19;90.60;99755.19;5060531;28;20443;-36
2024/01/14 13:09:08;;;;;;;19.75;9.18;;;;;;;-1.48;92.12;99746.81;5064360;28;20380;-35
2024/01/14 13:11:34;;;;;;;19.75;9.50;;;;;;;-1.60;92.39;99742.47;5064481;28;20045;-36
2024/01/14 13:13:59;;;;;;;18.17;9.70;;;;;;;-1.40;91.47;99741.88;5060304;28;20055;-36
2024/01/14 13:16:25;;;;;;;20.88;9.82;;;;;;;-1.71;92.33;99737.16;5062579;28;20519;-36
2024/01/14 13:18:50;;;;;;;18.38;9.68;;;;;;;-1.56;93.22;99727.41;5060750;28;20024;-36
2024/01/14 13:21:16;;;;;;;22.48;11.57;;;;;;;-1.40;92.61;99723.59;5062305;28;20519;-36
2024/01/14 13:23:42;;;;;;;20.67;10.32;;;;;;;-1.98;94.83;99726.84;5060592;28;20028;-35
2024/01/14 13:26:07;;;;;;;19.77;10.02;;;;;;;-1.99;95.25;99725.19;5056052;28;20044;-35
2024/01/14 13:28:33;;;;;;;14.63;7.40;;;;;;;-2.01;95.10;99724.47;5071630;28;20033;-35
2024/01/14 13:30:59;;;;;;;23.30;10.77;;;;;;;-1.70;93.98;99723.13;5071856;28;20062;-35
2024/01/14 13:33:25;;;;;;;17.45;9.65;;;;;;;-1.95;95.68;99709.22;5071878;28;20029;-34
2024/01/14 13:35:50;;;;;;;21.13;10.02;;;;;;;-2.17;96.52;99713.41;5071627;28;20040;-36
2024/01/14 13:38:16;;;;;;;21.15;10.93;;;;;;;-1.50;93.79;99708.66;5071322;28;20040;-36
2024/01/14 13:40:41;;;;;;;11.98;5.82;;;;;;;-1.94;94.46;99700.44;5071689;28;20123;-35
2024/01/14 13:43:07;;;;;;;22.23;11.50;;;;;;;-2.15;96.33;99704.53;5073521;28;20513;-34
2024/01/14 13:45:32;;;;;;;20.70;10.57;;;;;;;-1.99;96.53;99702.53;5075424;28;20569;-35
2024/01/14 13:47:58;;;;;;;22.20;10.18;;;;;;;-1.71;94.39;99705.81;5075566;28;20109;-36
2024/01/14 13:50:23;;;;;;;26.63;11.15;;;;;;;-1.59;93.98;99710.16;5075887;28;20036;-36
2024/01/14 13:52:49;;;;;;;20.92;10.30;;;;;;;-2.08;95.98;99691.91;5075898;28;20051;-34
2024/01/14 13:55:15;;;;;;;22.00;11.43;;;;;;;-1.99;96.93;99689.47;5075209;28;20048;-36
2024/01/14 13:57:41;;;;;;;20.70;10.38;;;;;;;-1.96;96.38;99697.09;5075042;28;20076;-36
2024/01/14 14:00:08;;;;;;;15.18;7.68;;;;;;;-2.41;98.36;99690.69;5075335;28;20101;-34
2024/01/14 14:02:34;;;;;;;17.48;10.23;;;;;;;-2.05;96.45;99687.28;5075004;28;20131;-35
2024/01/14 14:05:00;;;;;;;20.42;9.60;;;;;;;-2.17;96.85;99674.25;5075275;28;20045;-35
2024/01/14 14:07:25;;;;;;;19.25;9.27;;;;;;;-2.07;97.53;99677.91;5074904;28;20152;-35
2024/01/14 14:09:50;;;;;;;16.98;8.88;;;;;;;-2.28;98.13;99675.84;5078759;28;20068;-36
2024/01/14 14:12:16;;;;;;;22.90;10.20;;;;;;;-1.91;96.87;99674.09;5082615;28;20029;-36
2024/01/14 14:14:41;;;;;;;22.13;10.85;;;;;;;-2.09;97.83;99667.56;5081789;28;20081;-34
2024/01/14 14:17:07;;;;;;;25.27;10.75;;;;;;;-1.96;97.18;99664.91;5080040;28;20515;-36
2024/01/14 14:19:32;;;;;;;22.33;10.05;;;;;;;-2.05;98.28;99658.56;5073267;28;20132;-34
2024/01/14 14:21:58;;;;;;;22.85;11.80;;;;;;;-1.81;97.46;99652.59;5074304;28;20541;-39
2024/01/14 14:24:28;;;;;;;21.05;10.68;;;;;;;-1.97;97.58;99648.41;5074657;28;20569;-36
2024/01/14 14:26:54;;;;;;;26.77;11.93;;;;;;;-1.71;96.62;99653.56;5074021;28;20063;-35
2024/01/14 14:29:19;;;;;;;23.35;10.57;;;;;;;-1.84;96.41;99648.38;5074396;28;20036;-35
2024/01/14 14:31:45;;;;;;;21.63;10.20;;;;;;;-1.98;98.36;99646.75;5073053;28;20071;-34
2024/01/14 14:34:10;;;;;;;17.92;8.25;;;;;;;-2.16;98.97;99647.22;5073064;28;20123;-34
2024/01/14 14:36:35;;;;;;;19.15;6.93;;;;;;;-2.26;99.34;99647.03;5074062;28;20032;-35
2024/01/14 14:39:01;;;;;;;25.05;11.13;;;;;;;-1.62;97.86;99641.66;5074121;28;20039;-34
2024/01/14 14:41:26;;;;;;;21.70;11.60;;;;;;;-1.67;97.25;99631.53;5074383;28;20522;-35
2024/01/14 14:43:52;;;;;;;19.23;10.52;;;;;;;-1.75;97.06;99626.88;5074137;28;20040;-42
2024/01/14 14:46:17;;;;;;;21.80;10.70;;;;;;;-2.08;98.83;99616.22;5073892;28;20041;-40
2024/01/14 14:48:42;;;;;;;19.58;9.93;;;;;;;-2.09;99.26;99610.13;5074102;28;20037;-36
2024/01/14 14:51:08;;;;;;;16.00;8.63;;;;;;;-2.17;100.00;99622.91;5073966;28;20404;-34
2024/01/14 14:53:33;;;;;;;21.73;9.55;;;;;;;-2.26;100.00;99608.72;5073402;28;20028;-35
2024/01/14 14:55:59;;;;;;;21.02;11.07;;;;;;;-2.00;100.00;99608.66;5073641;28;20507;-36
2024/01/14 14:58:24;;;;;;;19.92;10.70;;;;;;;-2.09;99.55;99598.88;5073582;28;20032;-39
2024/01/14 15:00:49;;;;;;;24.00;11.05;;;;;;;-1.96;99.62;99600.53;5073814;28;20508;-36
2024/01/14 15:03:15;;;;;;;21.45;11.60;;;;;;;-1.90;98.80;99601.84;5073788;28;20040;-34
2024/01/14 15:05:40;;;;;;;23.42;10.75;;;;;;;-2.08;100.00;99596.16;5073581;28;20040;-40
2024/01/14 15:08:05;;;;;;;20.85;11.95;;;;;;;-2.05;100.00;99593.31;5073510;28;20036;-34
2024/01/14 15:10:31;;;;;;;21.83;10.95;;;;;;;-1.88;100.00;99591.31;5073735;28;20040;-37
2024/01/14 15:12:57;;;;;;;20.70;10.88;;;;;;;-1.70;99.86;99587.34;5073594;28;20040;-38
2024/01/14 15:15:23;;;;;;;23.63;11.45;;;;;;;-1.85;100.00;99588.47;5073653;28;20036;-35
2024/01/14 15:17:49;;;;;;;23.65;10.75;;;;;;;-2.04;100.00;99578.50;5073178;28;20051;-36
2024/01/14 15:20:14;;;;;;;24.60;12.13;;;;;;;-2.11;100.00;99579.88;5073370;28;20511;-35
2024/01/14 15:22:39;;;;;;;22.65;9.70;;;;;;;-2.12;100.00;99578.22;5072231;28;20083;-35
2024/01/14 15:25:05;;;;;;;22.85;11.35;;;;;;;-2.24;100.00;99572.91;5073410;28;20131;-37
2024/01/14 15:27:30;;;;;;;22.60;11.20;;;;;;;-2.19;100.00;99572.59;5073054;28;20070;-41
2024/01/14 15:29:56;;;;;;;25.25;11.88;;;;;;;-2.15;100.00;99571.44;5073243;28;20041;-35
2024/01/14 15:32:22;;;;;;;26.13;11.75;;;;;;;-2.16;100.00;99572.38;5073194;28;20028;-36
2024/01/14 15:34:48;;;;;;;23.77;11.05;;;;;;;-2.20;100.00;99573.53;5073287;28;20043;-36
2024/01/14 15:37:14;;;;;;;25.13;12.38;;;;;;;-2.18;100.00;99563.81;5072909;28;20107;-37
2024/01/14 15:39:40;;;;;;;29.38;12.15;;;;;;;-2.38;100.00;99556.56;5073068;28;20433;-37
2024/01/14 15:42:06;;;;;;;24.15;10.90;;;;;;;-2.26;100.00;99558.31;5072993;28;20123;-37
2024/01/14 15:44:31;;;;;;;27.27;11.25;;;;;;;-2.19;100.00;99552.56;5072947;28;20040;-37
2024/01/14 15:46:57;;;;;;;26.08;11.85;;;;;;;-2.36;100.00;99562.50;5072517;28;20507;-37
2024/01/14 15:49:23;;;;;;;22.42;11.82;;;;;;;-2.04;100.00;99555.00;5072737;28;20041;-32
2024/01/14 15:51:48;;;;;;;20.92;9.98;;;;;;;-2.35;100.00;99545.91;5072793;28;20431;-34
2024/01/14 15:54:14;;;;;;;21.63;10.20;;;;;;;-2.24;100.00;99543.38;5072812;28;20044;-34
2024/01/14 15:56:39;;;;;;;24.05;10.98;;;;;;;-2.26;100.00;99545.28;5072453;28;20499;-35
2024/01/14 15:59:04;;;;;;;23.52;10.13;;;;;;;-2.52;100.00;99540.13;5072566;28;20032;-34
2024/01/14 16:01:30;;;;;;;19.80;9.57;;;;;;;-2.52;100.00;99537.50;5071937;28;20724;-33
2024/01/14 16:03:55;;;;;;;28.40;10.88;;;;;;;-2.66;100.00;99544.63;5072509;28;20040;-34
2024/01/14 16:06:21;;;;;;;28.65;11.70;;;;;;;-2.43;100.00;99537.78;5071405;28;20102;-33
2024/01/14 16:08:47;;;;;;;17.95;8.80;;;;;;;-2.67;100.00;99541.19;5072405;28;20636;-33
2024/01/14 16:11:13;;;;;;;16.20;8.15;;;;;;;-2.64;100.00;99540.13;5072356;28;20071;-33
2024/01/14 16:13:39;;;;;;;24.48;10.70;;;;;;;-2.41;100.00;99533.28;5072388;28;20040;-37
2024/01/14 16:16:06;;;;;;;22.48;11.55;;;;;;;-2.73;100.00;99533.78;5072218;28;20040;-35
2024/01/14 16:18:32;;;;;;;22.08;10.57;;;;;;;-2.64;100.00;99534.91;5062098;28;20055;-40
2024/01/14 16:20:58;;;;;;;24.50;10.40;;;;;;;-2.59;100.00;99527.63;5052318;28;20365;-44
2024/01/14 16:23:23;;;;;;;24.00;12.32;;;;;;;-2.47;100.00;99537.19;5052255;28;20045;-44
2024/01/14 16:25:49;;;;;;;22.42;11.38;;;;;;;-2.49;100.00;99537.28;5052228;28;20048;-44
2024/01/14 16:28:14;;;;;;;21.40;10.13;;;;;;;-2.58;100.00;99545.75;5052452;28;20033;-45
2024/01/14 16:30:40;;;;;;;23.92;10.57;;;;;;;-2.56;100.00;99537.81;5055842;28;20447;-38